Time;durP1;ratioP1;P1;durP2;ratioP2;P2;SDS_P1;SDS_P2;PMS_P1;PMS_P2;Temp;Humidity;BMP_temperature;BMP_pressure;BME280_temperature;BME280_humidity;BME280_pressure;Samples;Min_cycle;Max_cycle;Signal;HPM_P1;HPM_P2
2021/03/01 00:01:15;;;;;;;28.00;15.90;;;;;;;3.84;100.00;102665.63;5024200;28;20033;-54
2021/03/01 00:03:42;;;;;;;27.75;14.98;;;;;;;3.83;100.00;102661.25;5027899;28;20047;-54
2021/03/01 00:06:09;;;;;;;24.33;14.43;;;;;;;3.77;100.00;102662.41;5030747;28;20050;-55
2021/03/01 00:08:36;;;;;;;27.02;16.52;;;;;;;3.68;100.00;102663.69;5027796;28;20046;-54
2021/03/01 00:11:04;;;;;;;29.25;15.68;;;;;;;3.64;100.00;102659.50;5027976;28;20360;-55
2021/03/01 00:13:31;;;;;;;30.42;16.10;;;;;;;3.60;100.00;102665.84;5022961;28;20377;-55
2021/03/01 00:15:58;;;;;;;27.25;15.23;;;;;;;3.51;100.00;102661.00;5025733;28;20033;-54
2021/03/01 00:18:25;;;;;;;37.80;15.95;;;;;;;3.45;100.00;102657.72;5027585;28;20039;-55
2021/03/01 00:20:52;;;;;;;39.35;16.10;;;;;;;3.55;100.00;102658.16;5026556;28;20242;-54
2021/03/01 00:23:19;;;;;;;32.20;15.98;;;;;;;3.73;100.00;102669.63;5020896;28;20041;-55
2021/03/01 00:25:46;;;;;;;28.02;16.40;;;;;;;3.64;100.00;102663.94;5027288;28;20042;-52
2021/03/01 00:28:13;;;;;;;29.65;16.52;;;;;;;3.65;100.00;102671.78;5028870;28;20076;-55
2021/03/01 00:30:40;;;;;;;31.95;16.88;;;;;;;3.59;100.00;102667.63;5029005;28;20050;-54
2021/03/01 00:33:07;;;;;;;28.30;16.35;;;;;;;3.49;100.00;102669.00;5024429;28;20045;-54
2021/03/01 00:35:34;;;;;;;27.40;15.38;;;;;;;3.40;100.00;102674.72;5025753;28;20038;-53
2021/03/01 00:38:02;;;;;;;29.35;17.45;;;;;;;3.53;100.00;102667.94;5026645;28;20048;-54
2021/03/01 00:40:29;;;;;;;30.88;17.23;;;;;;;3.41;100.00;102679.91;5030836;28;20166;-53
2021/03/01 00:42:57;;;;;;;39.08;18.10;;;;;;;3.25;100.00;102685.06;5025609;28;20065;-54
2021/03/01 00:45:25;;;;;;;29.75;17.88;;;;;;;3.22;100.00;102682.56;5028157;28;20463;-54
2021/03/01 00:47:52;;;;;;;35.35;18.10;;;;;;;3.24;100.00;102685.13;5023975;28;20049;-52
2021/03/01 00:50:19;;;;;;;34.58;17.67;;;;;;;3.08;100.00;102683.16;5027237;28;20144;-54
2021/03/01 00:52:46;;;;;;;34.20;17.38;;;;;;;2.99;100.00;102678.31;5017902;28;20049;-54
2021/03/01 00:55:13;;;;;;;36.40;18.38;;;;;;;3.05;100.00;102678.03;5023264;28;20354;-55
2021/03/01 00:57:40;;;;;;;38.75;19.13;;;;;;;3.02;100.00;102677.28;5028470;28;20041;-55
2021/03/01 01:00:10;;;;;;;39.85;20.00;;;;;;;2.99;100.00;102682.72;5026644;28;20366;-54
2021/03/01 01:02:38;;;;;;;38.58;19.55;;;;;;;2.83;100.00;102688.66;5026646;28;20052;-55
2021/03/01 01:05:06;;;;;;;43.03;21.13;;;;;;;2.64;100.00;102682.50;5031499;28;20044;-55
2021/03/01 01:07:34;;;;;;;38.10;19.83;;;;;;;2.41;100.00;102679.06;5027434;28;20045;-54
2021/03/01 01:10:01;;;;;;;36.80;20.30;;;;;;;2.20;100.00;102673.72;5025288;28;20046;-53
2021/03/01 01:12:28;;;;;;;44.20;22.27;;;;;;;2.00;100.00;102677.19;4999654;28;20042;-55
2021/03/01 01:14:55;;;;;;;35.42;19.60;;;;;;;1.70;100.00;102677.50;5003684;28;20493;-56
2021/03/01 01:17:22;;;;;;;40.20;21.08;;;;;;;1.53;100.00;102677.25;5004002;28;20034;-56
2021/03/01 01:19:49;;;;;;;39.25;18.98;;;;;;;1.50;100.00;102677.38;5004703;28;20085;-56
2021/03/01 01:22:16;;;;;;;35.55;19.13;;;;;;;1.37;100.00;102677.84;5007237;28;20038;-55
2021/03/01 01:24:43;;;;;;;33.35;19.40;;;;;;;1.58;100.00;102670.06;5006649;28;20068;-54
2021/03/01 01:27:10;;;;;;;30.55;18.23;;;;;;;1.36;100.00;102673.50;5005510;28;20207;-55
2021/03/01 01:29:37;;;;;;;41.72;21.08;;;;;;;1.30;100.00;102672.88;5006140;28;20144;-52
2021/03/01 01:32:05;;;;;;;40.28;22.15;;;;;;;1.21;100.00;102666.19;5006641;28;20419;-55
2021/03/01 01:34:32;;;;;;;44.80;21.85;;;;;;;1.10;100.00;102665.72;5007074;28;20038;-57
2021/03/01 01:36:59;;;;;;;52.22;24.20;;;;;;;1.23;100.00;102663.50;5003227;28;20045;-56
2021/03/01 01:39:26;;;;;;;50.47;24.25;;;;;;;1.09;100.00;102661.38;5008155;28;20384;-56
2021/03/01 01:41:53;;;;;;;45.67;22.85;;;;;;;1.05;100.00;102670.28;5007304;28;20092;-56
2021/03/01 01:44:20;;;;;;;47.03;23.83;;;;;;;0.94;100.00;102668.06;5003926;28;20133;-55
2021/03/01 01:46:47;;;;;;;46.58;24.17;;;;;;;1.13;100.00;102665.59;5003197;28;20037;-55
2021/03/01 01:49:14;;;;;;;50.58;25.08;;;;;;;1.28;100.00;102653.66;5008780;28;20361;-55
2021/03/01 01:51:42;;;;;;;43.97;24.65;;;;;;;1.36;100.00;102644.56;5006451;28;20460;-55
2021/03/01 01:54:11;;;;;;;48.92;24.77;;;;;;;1.18;100.00;102643.47;5006352;28;20349;-55
2021/03/01 01:56:38;;;;;;;45.63;24.55;;;;;;;1.08;100.00;102643.84;5010028;28;20046;-56
2021/03/01 01:59:05;;;;;;;51.13;27.33;;;;;;;1.21;100.00;102655.66;5008780;28;20034;-55
2021/03/01 02:01:32;;;;;;;56.25;29.27;;;;;;;1.23;100.00;102648.53;5010654;28;20092;-55
2021/03/01 02:04:03;;;;;;;47.60;25.50;;;;;;;1.31;100.00;102650.91;5010044;28;20038;-56
2021/03/01 02:06:40;;;;;;;48.63;24.83;;;;;;;1.05;100.00;102650.09;5009808;28;20045;-56
2021/03/01 02:09:27;;;;;;;49.08;23.77;;;;;;;0.89;100.00;102654.19;5010826;28;20050;-54
2021/03/01 02:12:13;;;;;;;48.70;25.08;;;;;;;1.15;100.00;102651.47;5009456;28;20425;-56
2021/03/01 02:14:50;;;;;;;59.00;29.52;;;;;;;1.12;100.00;102638.44;5005275;28;20042;-56
2021/03/01 02:17:17;;;;;;;66.70;28.52;;;;;;;1.24;100.00;102650.28;5006724;28;20042;-55
2021/03/01 02:19:44;;;;;;;60.80;29.23;;;;;;;1.13;100.00;102648.03;5010307;28;20041;-55
2021/03/01 02:22:12;;;;;;;58.58;29.63;;;;;;;1.03;100.00;102639.66;5009412;28;20046;-56
2021/03/01 02:24:41;;;;;;;66.25;30.10;;;;;;;0.88;100.00;102647.22;5004102;28;20354;-56
2021/03/01 02:27:11;;;;;;;67.20;30.63;;;;;;;0.87;100.00;102642.88;5007178;28;20068;-54
2021/03/01 02:29:39;;;;;;;61.05;30.35;;;;;;;1.24;100.00;102639.75;5009202;28;20034;-56
2021/03/01 02:32:06;;;;;;;60.75;29.10;;;;;;;1.26;100.00;102643.19;5011089;28;20049;-56
2021/03/01 02:34:35;;;;;;;73.35;30.45;;;;;;;1.34;100.00;102640.25;5010679;28;20057;-55
2021/03/01 02:37:04;;;;;;;61.28;30.23;;;;;;;1.15;100.00;102637.47;5004870;28;20042;-56
2021/03/01 02:39:35;;;;;;;62.40;31.08;;;;;;;1.05;100.00;102633.44;5009463;28;20041;-56
2021/03/01 02:42:04;;;;;;;65.50;28.33;;;;;;;0.85;100.00;102635.91;5004308;28;20048;-55
2021/03/01 02:44:31;;;;;;;59.85;31.52;;;;;;;0.79;100.00;102627.38;5010208;28;20054;-53
2021/03/01 02:46:59;;;;;;;72.72;31.20;;;;;;;0.97;100.00;102629.31;5005839;28;20041;-55
2021/03/01 02:49:27;;;;;;;78.65;34.60;;;;;;;1.06;100.00;102622.00;5006112;28;20065;-56
2021/03/01 02:51:55;;;;;;;94.20;40.13;;;;;;;1.20;100.00;102622.34;5006598;28;20057;-56
2021/03/01 02:54:23;;;;;;;101.00;42.65;;;;;;;1.15;100.00;102619.06;5007932;28;20038;-56
2021/03/01 02:56:52;;;;;;;101.13;41.92;;;;;;;1.08;100.00;102617.53;5007388;28;20441;-56
2021/03/01 02:59:21;;;;;;;111.22;42.10;;;;;;;1.17;100.00;102627.72;5005358;28;20050;-56
2021/03/01 03:01:49;;;;;;;109.05;45.55;;;;;;;1.15;100.00;102619.06;5008566;28;20037;-55
2021/03/01 03:04:17;;;;;;;107.13;43.33;;;;;;;0.95;100.00;102617.13;5008106;28;20334;-55
2021/03/01 03:06:44;;;;;;;113.15;42.80;;;;;;;0.88;100.00;102621.78;5007076;28;20041;-56
2021/03/01 03:09:12;;;;;;;98.57;42.50;;;;;;;0.88;100.00;102611.25;5009235;28;20088;-53
2021/03/01 03:11:41;;;;;;;93.78;43.53;;;;;;;1.03;100.00;102613.31;5007288;28;20050;-54
2021/03/01 03:14:10;;;;;;;95.15;39.92;;;;;;;0.95;100.00;102614.50;5007091;28;20057;-55
2021/03/01 03:16:37;;;;;;;103.30;44.65;;;;;;;1.01;100.00;102607.25;5005694;28;20041;-56
2021/03/01 03:19:05;;;;;;;114.13;45.97;;;;;;;1.07;100.00;102607.94;5008656;28;20441;-55
2021/03/01 03:21:33;;;;;;;108.30;46.17;;;;;;;1.23;100.00;102611.69;5007313;28;20042;-56
2021/03/01 03:24:01;;;;;;;107.05;44.35;;;;;;;1.20;100.00;102611.81;5006046;28;20042;-56
2021/03/01 03:26:28;;;;;;;95.68;44.13;;;;;;;1.08;100.00;102612.28;5008466;28;20043;-57
2021/03/01 03:28:55;;;;;;;98.32;43.13;;;;;;;0.86;100.00;102605.19;5006148;28;20041;-55
2021/03/01 03:31:22;;;;;;;97.60;45.97;;;;;;;0.87;100.00;102609.53;5009653;28;20068;-56
2021/03/01 03:33:51;;;;;;;101.85;43.08;;;;;;;1.06;100.00;102596.53;5008587;28;20042;-56
2021/03/01 03:36:22;;;;;;;105.78;46.92;;;;;;;1.29;100.00;102595.69;5002805;28;20046;-56
2021/03/01 03:38:54;;;;;;;112.65;48.80;;;;;;;1.28;100.00;102599.22;5003859;28;20043;-55
2021/03/01 03:41:22;;;;;;;103.95;44.65;;;;;;;1.18;100.00;102597.88;5006007;28;20046;-56
2021/03/01 03:43:49;;;;;;;100.05;44.15;;;;;;;1.28;100.00;102604.50;5009449;28;20038;-55
2021/03/01 03:46:18;;;;;;;110.38;44.97;;;;;;;1.31;100.00;102599.09;5003901;28;20048;-53
2021/03/01 03:48:49;;;;;;;102.85;44.78;;;;;;;1.27;100.00;102594.88;4999041;28;20410;-55
2021/03/01 03:51:17;;;;;;;97.20;45.08;;;;;;;1.18;100.00;102598.72;5007993;28;20045;-54
2021/03/01 03:53:48;;;;;;;114.25;47.67;;;;;;;1.09;100.00;102596.44;5004674;28;20046;-57
2021/03/01 03:56:16;;;;;;;118.40;48.05;;;;;;;0.90;100.00;102604.16;5003723;28;20038;-56
2021/03/01 03:58:46;;;;;;;117.15;48.75;;;;;;;0.78;100.00;102604.59;5005235;28;20641;-56
2021/03/01 04:01:14;;;;;;;111.45;46.00;;;;;;;0.71;100.00;102603.09;5006552;28;20069;-56
2021/03/01 04:03:41;;;;;;;99.35;42.97;;;;;;;0.83;100.00;102603.50;5009957;28;20506;-54
2021/03/01 04:06:11;;;;;;;82.75;39.75;;;;;;;0.85;100.00;102603.47;5003755;28;20064;-56
2021/03/01 04:08:39;;;;;;;84.95;38.08;;;;;;;0.75;100.00;102605.59;5004602;28;20034;-56
2021/03/01 04:11:06;;;;;;;104.53;44.72;;;;;;;0.77;100.00;102602.91;5007388;28;20446;-56
2021/03/01 04:13:33;;;;;;;117.05;46.20;;;;;;;0.76;100.00;102603.81;5011501;28;20261;-54
2021/03/01 04:16:00;;;;;;;105.32;46.13;;;;;;;0.65;100.00;102599.81;5006186;28;20038;-56
2021/03/01 04:18:29;;;;;;;90.78;41.72;;;;;;;0.75;100.00;102599.44;5128771;22;20065;-51
2021/03/01 04:20:56;;;;;;;102.85;44.58;;;;;;;0.81;100.00;102601.88;4979352;28;20425;-51
2021/03/01 04:23:25;;;;;;;115.82;47.22;;;;;;;0.76;100.00;102596.75;4984046;28;20058;-51
2021/03/01 04:25:52;;;;;;;109.25;47.22;;;;;;;0.66;100.00;102596.25;4985882;28;20053;-53
2021/03/01 04:28:20;;;;;;;112.75;46.42;;;;;;;0.79;100.00;102593.16;4980861;28;20329;-51
2021/03/01 04:30:48;;;;;;;121.75;49.05;;;;;;;0.81;100.00;102594.00;4983438;28;20053;-53
2021/03/01 04:33:16;;;;;;;129.38;53.05;;;;;;;0.84;100.00;102594.72;4982868;28;20204;-52
2021/03/01 04:35:44;;;;;;;134.43;55.42;;;;;;;0.83;100.00;102595.63;4984007;28;20065;-52
2021/03/01 04:38:12;;;;;;;122.97;53.15;;;;;;;0.80;100.00;102597.53;4981212;28;20157;-53
2021/03/01 04:40:40;;;;;;;138.15;54.13;;;;;;;0.85;100.00;102600.81;4982218;28;20043;-54
2021/03/01 04:43:09;;;;;;;128.70;52.95;;;;;;;1.13;100.00;102589.28;4985752;28;20149;-52
2021/03/01 04:45:36;;;;;;;117.18;51.20;;;;;;;1.18;100.00;102598.72;4981593;28;20050;-51
2021/03/01 04:48:05;;;;;;;108.90;47.60;;;;;;;1.30;100.00;102591.28;4979997;28;20308;-53
2021/03/01 04:50:33;;;;;;;113.13;47.60;;;;;;;1.36;100.00;102586.63;4984832;28;20046;-54
2021/03/01 04:52:59;;;;;;;108.18;46.33;;;;;;;1.38;100.00;102589.19;4983437;28;20468;-53
2021/03/01 04:55:27;;;;;;;108.30;48.05;;;;;;;1.31;100.00;102588.56;4986150;28;20322;-54
2021/03/01 04:57:56;;;;;;;106.45;47.03;;;;;;;1.24;100.00;102591.50;4980957;28;20050;-53
2021/03/01 05:00:23;;;;;;;113.28;47.30;;;;;;;1.32;100.00;102589.44;4985256;28;20046;-53
2021/03/01 05:02:50;;;;;;;96.50;44.45;;;;;;;1.37;100.00;102593.59;4986528;28;20285;-53
2021/03/01 05:05:18;;;;;;;102.47;45.92;;;;;;;1.26;100.00;102595.81;4988731;28;20055;-54
2021/03/01 05:07:46;;;;;;;93.80;41.20;;;;;;;1.43;100.00;102602.19;4979881;28;20049;-53
2021/03/01 05:10:14;;;;;;;87.57;41.63;;;;;;;1.40;100.00;102597.88;4983247;28;20201;-54
2021/03/01 05:12:41;;;;;;;100.07;44.92;;;;;;;1.34;100.00;102601.59;4984265;28;20038;-52
2021/03/01 05:15:09;;;;;;;88.07;42.42;;;;;;;1.34;100.00;102595.50;4983903;28;20062;-53
2021/03/01 05:17:37;;;;;;;96.38;43.88;;;;;;;1.32;100.00;102594.72;4982914;28;20042;-53
2021/03/01 05:20:07;;;;;;;89.80;42.17;;;;;;;1.31;100.00;102587.72;4983269;28;20097;-53
2021/03/01 05:22:34;;;;;;;92.78;42.60;;;;;;;1.21;100.00;102592.50;4983316;28;20373;-54
2021/03/01 05:25:01;;;;;;;96.32;41.35;;;;;;;1.30;100.00;102592.13;4985822;28;20338;-53
2021/03/01 05:27:29;;;;;;;87.68;42.45;;;;;;;1.30;100.00;102588.63;4987596;28;20035;-48
2021/03/01 05:29:56;;;;;;;93.65;43.38;;;;;;;1.29;100.00;102585.16;4986441;28;20046;-54
2021/03/01 05:32:24;;;;;;;83.10;40.95;;;;;;;1.28;100.00;102593.13;4993706;28;20089;-53
2021/03/01 05:34:51;;;;;;;111.20;44.00;;;;;;;1.21;100.00;102595.13;4990206;28;20045;-52
2021/03/01 05:37:18;;;;;;;95.50;42.13;;;;;;;1.20;100.00;102591.63;4987485;28;20038;-53
2021/03/01 05:39:45;;;;;;;91.30;42.30;;;;;;;1.19;100.00;102596.94;4989709;28;20038;-52
2021/03/01 05:42:12;;;;;;;91.53;44.85;;;;;;;1.14;100.00;102585.75;4985229;28;20342;-54
2021/03/01 05:44:40;;;;;;;101.57;44.63;;;;;;;1.19;100.00;102592.53;4988569;28;20053;-53
2021/03/01 05:47:09;;;;;;;91.30;42.92;;;;;;;1.19;100.00;102594.31;4989646;28;20050;-53
2021/03/01 05:49:38;;;;;;;88.03;43.45;;;;;;;1.21;100.00;102592.50;4988817;28;20046;-53
2021/03/01 05:52:06;;;;;;;90.38;43.10;;;;;;;1.15;100.00;102582.19;4988273;28;20043;-54
2021/03/01 05:54:34;;;;;;;98.40;45.75;;;;;;;1.18;100.00;102588.19;4986614;28;20093;-53
2021/03/01 05:57:04;;;;;;;93.30;44.28;;;;;;;1.12;100.00;102587.56;4986573;28;20373;-53
2021/03/01 05:59:31;;;;;;;102.50;46.80;;;;;;;1.08;100.00;102586.84;4988246;28;20092;-54
2021/03/01 06:01:58;;;;;;;105.78;49.95;;;;;;;1.08;100.00;102585.97;4983999;28;20046;-54
2021/03/01 06:04:25;;;;;;;96.03;49.35;;;;;;;0.99;100.00;102588.03;4990936;28;20129;-51
2021/03/01 06:06:53;;;;;;;101.40;48.83;;;;;;;1.01;100.00;102580.94;4988094;28;20054;-52
2021/03/01 06:09:20;;;;;;;102.10;48.88;;;;;;;1.04;100.00;102582.59;4988236;28;20050;-53
2021/03/01 06:11:48;;;;;;;99.28;46.47;;;;;;;1.06;100.00;102588.66;4990383;28;20046;-53
2021/03/01 06:14:15;;;;;;;100.50;47.97;;;;;;;1.14;100.00;102588.38;4985926;28;20121;-54
2021/03/01 06:17:11;;;;;;;103.85;47.30;;;;;;;1.25;100.00;102587.94;4987794;28;20152;-54
2021/03/01 06:19:50;;;;;;;117.50;49.42;;;;;;;1.27;100.00;102584.34;4986333;28;20038;-53
2021/03/01 06:22:19;;;;;;;111.45;47.83;;;;;;;1.26;100.00;102594.94;4989791;28;20448;-54
2021/03/01 06:25:08;;;;;;;132.55;51.03;;;;;;;1.29;100.00;102592.19;4988625;28;20113;-52
2021/03/01 06:27:48;;;;;;;137.52;51.60;;;;;;;1.29;100.00;102600.06;4983838;28;20042;-53
2021/03/01 06:30:16;;;;;;;181.45;56.47;;;;;;;1.28;100.00;102603.66;4984180;28;20038;-52
2021/03/01 06:32:43;;;;;;;181.25;57.75;;;;;;;1.26;100.00;102605.47;4986201;28;20065;-57
2021/03/01 06:35:27;;;;;;;192.15;57.83;;;;;;;1.24;100.00;102605.53;4983175;28;20264;-54
2021/03/01 06:38:17;;;;;;;211.48;61.05;;;;;;;1.27;100.00;102607.19;4983186;28;20042;-54
2021/03/01 06:40:45;;;;;;;181.82;59.58;;;;;;;1.27;100.00;102613.28;4986865;28;20057;-54
2021/03/01 06:43:13;;;;;;;182.25;57.17;;;;;;;1.25;100.00;102609.88;4987765;28;20415;-53
2021/03/01 06:45:40;;;;;;;170.82;52.78;;;;;;;1.29;100.00;102613.25;4986803;28;20061;-54
2021/03/01 06:48:08;;;;;;;173.77;58.40;;;;;;;1.28;100.00;102619.44;4986300;28;20273;-54
2021/03/01 06:50:37;;;;;;;234.35;71.82;;;;;;;1.29;100.00;102622.00;4986253;28;20042;-52
2021/03/01 06:53:15;;;;;;;203.82;56.25;;;;;;;1.28;100.00;102622.06;4987730;28;20044;-53
2021/03/01 06:55:57;;;;;;;247.35;71.70;;;;;;;1.27;100.00;102617.72;4986304;28;20338;-52
2021/03/01 06:58:25;;;;;;;168.32;53.58;;;;;;;1.24;100.00;102618.69;4981067;28;20038;-54
2021/03/01 07:01:00;;;;;;;158.23;52.95;;;;;;;1.25;100.00;102619.53;4984653;28;20042;-52
2021/03/01 07:03:27;;;;;;;243.60;67.95;;;;;;;1.30;100.00;102618.44;4982527;28;20164;-54
2021/03/01 07:05:55;;;;;;;172.52;53.83;;;;;;;1.35;100.00;102621.75;4988997;28;20041;-54
2021/03/01 07:08:33;;;;;;;172.90;55.50;;;;;;;1.37;100.00;102630.44;4983682;28;20389;-55
2021/03/01 07:11:01;;;;;;;202.45;62.20;;;;;;;1.41;100.00;102633.00;4988464;28;20042;-55
2021/03/01 07:13:28;;;;;;;172.05;52.85;;;;;;;1.43;100.00;102633.78;4985277;28;20042;-52
2021/03/01 07:15:56;;;;;;;175.15;53.05;;;;;;;1.41;100.00;102638.25;4983999;28;20039;-52
2021/03/01 07:18:25;;;;;;;190.63;57.50;;;;;;;1.51;100.00;102636.97;4985942;28;20060;-53
2021/03/01 07:20:53;;;;;;;199.15;55.05;;;;;;;1.53;100.00;102640.38;4980211;28;20510;-52
2021/03/01 07:23:20;;;;;;;220.52;58.38;;;;;;;1.61;100.00;102637.47;4985963;28;20042;-52
2021/03/01 07:25:47;;;;;;;189.30;62.25;;;;;;;1.57;100.00;102642.00;4986139;28;20055;-54
2021/03/01 07:28:16;;;;;;;179.43;52.92;;;;;;;1.59;100.00;102636.66;4980979;28;20038;-52
2021/03/01 07:30:45;;;;;;;155.63;49.65;;;;;;;1.53;100.00;102640.38;4980972;28;20047;-53
2021/03/01 07:33:13;;;;;;;180.85;58.42;;;;;;;1.61;100.00;102638.31;4982737;28;20181;-55
2021/03/01 07:35:41;;;;;;;257.83;63.10;;;;;;;1.64;100.00;102642.63;4981205;28;20077;-54
2021/03/01 07:38:08;;;;;;;188.48;55.42;;;;;;;1.61;100.00;102648.00;4988624;28;20046;-51
2021/03/01 07:40:36;;;;;;;194.50;58.28;;;;;;;1.55;100.00;102644.69;4983679;28;20039;-53
2021/03/01 07:43:04;;;;;;;199.90;58.45;;;;;;;1.58;100.00;102638.44;4983048;28;20130;-52
2021/03/01 07:45:32;;;;;;;254.70;68.72;;;;;;;1.69;100.00;102638.03;4983431;28;20053;-53
2021/03/01 07:48:11;;;;;;;252.18;61.20;;;;;;;1.68;100.00;102639.78;4980852;28;20070;-54
2021/03/01 07:50:39;;;;;;;265.42;70.57;;;;;;;1.71;100.00;102639.66;4981582;28;20035;-53
2021/03/01 07:53:48;;;;;;;197.90;57.10;;;;;;;1.76;100.00;102639.50;4982633;28;20101;-54
2021/03/01 07:56:45;;;;;;;282.25;81.95;;;;;;;1.96;100.00;102641.34;4983396;28;20046;-52
2021/03/01 07:59:14;;;;;;;181.02;51.97;;;;;;;1.84;100.00;102652.34;4979959;28;20065;-54
2021/03/01 08:01:42;;;;;;;211.20;64.45;;;;;;;1.94;100.00;102639.69;4986908;28;20050;-53
2021/03/01 08:04:33;;;;;;;240.73;65.93;;;;;;;1.80;100.00;102635.84;4988881;28;20065;-55
2021/03/01 08:07:00;;;;;;;266.77;67.03;;;;;;;1.74;100.00;102632.56;4986217;28;20042;-55
2021/03/01 08:09:45;;;;;;;236.48;66.00;;;;;;;1.88;100.00;102640.78;4984917;28;20066;-53
2021/03/01 08:12:14;;;;;;;167.38;54.83;;;;;;;1.85;100.00;102635.63;4984055;28;20260;-54
2021/03/01 08:14:57;;;;;;;214.73;59.15;;;;;;;1.91;100.00;102635.38;4985960;28;20322;-53
2021/03/01 08:17:35;;;;;;;245.68;60.63;;;;;;;1.92;100.00;102641.53;4984875;28;20057;-52
2021/03/01 08:20:27;;;;;;;160.60;54.33;;;;;;;2.00;100.00;102640.28;4981499;28;20460;-52
2021/03/01 08:23:18;;;;;;;153.10;49.67;;;;;;;2.07;100.00;102643.53;4982048;28;20042;-51
2021/03/01 08:25:52;;;;;;;166.60;53.42;;;;;;;1.93;100.00;102649.38;4964340;28;20054;-50
2021/03/01 08:28:44;;;;;;;170.90;52.22;;;;;;;1.96;100.00;102641.34;4982686;28;20042;-50
2021/03/01 08:31:26;;;;;;;137.73;47.63;;;;;;;1.90;100.00;102649.50;4989397;28;20338;-53
2021/03/01 08:34:33;;;;;;;203.85;61.80;;;;;;;2.26;100.00;102646.25;4988257;28;20366;-53
2021/03/01 08:37:02;;;;;;;191.40;55.05;;;;;;;2.20;100.00;102644.72;4981661;28;20429;-49
2021/03/01 08:39:57;;;;;;;173.02;58.13;;;;;;;2.09;100.00;102643.47;4984964;28;20322;-52
2021/03/01 08:42:45;;;;;;;220.63;63.03;;;;;;;2.32;100.00;102645.16;4984666;28;20041;-52
2021/03/01 08:45:12;;;;;;;181.07;58.88;;;;;;;2.19;100.00;102650.06;4985107;28;20072;-52
2021/03/01 08:47:50;;;;;;;263.85;79.55;;;;;;;2.17;100.00;102657.16;4984416;28;20050;-53
2021/03/01 08:50:25;;;;;;;227.10;61.78;;;;;;;2.19;100.00;102655.34;4983651;28;20065;-53
2021/03/01 08:53:07;;;;;;;146.57;49.00;;;;;;;2.16;100.00;102650.22;4980326;28;20093;-52
2021/03/01 08:55:35;;;;;;;166.25;50.92;;;;;;;2.16;100.00;102655.47;4978075;28;20045;-52
2021/03/01 08:58:08;;;;;;;186.55;55.67;;;;;;;2.19;100.00;102648.28;4979172;28;20038;-51
2021/03/01 09:00:37;;;;;;;138.80;46.95;;;;;;;2.47;100.00;102662.13;4977624;28;20322;-53
2021/03/01 09:03:12;;;;;;;126.07;45.08;;;;;;;2.32;100.00;102656.53;4983751;28;20275;-51
2021/03/01 09:05:41;;;;;;;181.93;51.05;;;;;;;2.27;100.00;102655.00;4983065;28;20303;-52
2021/03/01 09:08:09;;;;;;;159.77;48.13;;;;;;;2.11;100.00;102649.53;4984042;28;20054;-51
2021/03/01 09:10:38;;;;;;;161.77;48.00;;;;;;;2.21;100.00;102649.09;4982761;28;20096;-54
2021/03/01 09:13:07;;;;;;;124.45;39.55;;;;;;;2.32;100.00;102647.78;4985815;28;20390;-52
2021/03/01 09:15:36;;;;;;;89.38;35.78;;;;;;;2.37;100.00;102653.72;4984152;28;20038;-53
2021/03/01 09:18:09;;;;;;;116.22;42.40;;;;;;;2.55;100.00;102652.94;4981833;28;20035;-54
2021/03/01 09:20:43;;;;;;;93.53;34.38;;;;;;;2.39;100.00;102651.88;4986341;28;20042;-53
2021/03/01 09:23:12;;;;;;;93.60;35.07;;;;;;;2.32;100.00;102646.00;4981612;28;20044;-50
2021/03/01 09:25:39;;;;;;;92.32;36.40;;;;;;;2.31;100.00;102646.94;4985802;28;20324;-48
2021/03/01 09:28:08;;;;;;;86.57;37.55;;;;;;;2.38;100.00;102650.16;4981681;28;20104;-50
2021/03/01 09:30:36;;;;;;;89.30;34.65;;;;;;;2.62;100.00;102642.97;4976917;28;20067;-50
2021/03/01 09:33:06;;;;;;;93.20;37.55;;;;;;;2.47;100.00;102643.66;4982514;28;20034;-52
2021/03/01 09:35:36;;;;;;;89.28;38.67;;;;;;;2.72;100.00;102644.31;4979932;28;20050;-53
2021/03/01 09:38:05;;;;;;;75.88;34.25;;;;;;;2.81;100.00;102650.06;4979781;28;20045;-52
2021/03/01 09:40:32;;;;;;;109.40;40.65;;;;;;;2.83;100.00;102646.44;4979261;28;20061;-52
2021/03/01 09:43:04;;;;;;;91.88;36.47;;;;;;;2.98;100.00;102647.56;4981152;28;20051;-53
2021/03/01 09:45:33;;;;;;;90.38;39.78;;;;;;;3.22;100.00;102647.38;4982875;28;20333;-48
2021/03/01 09:48:01;;;;;;;90.75;37.75;;;;;;;3.40;100.00;102654.44;4985844;28;20326;-52
2021/03/01 09:50:29;;;;;;;93.20;40.72;;;;;;;3.26;100.00;102647.16;4987360;28;20046;-52
2021/03/01 09:52:56;;;;;;;94.38;40.53;;;;;;;3.40;100.00;102648.28;4982167;28;20046;-53
2021/03/01 09:55:25;;;;;;;100.38;40.42;;;;;;;3.50;100.00;102648.72;4985350;28;20348;-51
2021/03/01 09:57:52;;;;;;;97.30;40.85;;;;;;;3.78;100.00;102646.50;4976312;28;20093;-53
2021/03/01 10:00:25;;;;;;;88.88;40.13;;;;;;;3.40;100.00;102643.00;4983422;28;20077;-52
2021/03/01 10:02:56;;;;;;;88.53;37.60;;;;;;;3.52;100.00;102646.88;4986260;28;20365;-52
2021/03/01 10:05:23;;;;;;;78.22;33.97;;;;;;;3.28;100.00;102647.94;4982168;28;20179;-51
2021/03/01 10:07:54;;;;;;;76.97;30.13;;;;;;;3.38;100.00;102648.38;4979270;28;20043;-53
2021/03/01 10:10:22;;;;;;;88.20;34.80;;;;;;;3.59;100.00;102640.38;4986874;28;20050;-53
2021/03/01 10:12:50;;;;;;;84.10;34.67;;;;;;;3.65;100.00;102640.06;4983660;28;20434;-51
2021/03/01 10:15:19;;;;;;;78.90;31.25;;;;;;;3.73;100.00;102637.94;4987377;28;20049;-51
2021/03/01 10:17:46;;;;;;;79.03;30.58;;;;;;;3.71;100.00;102629.19;4986963;28;20429;-47
2021/03/01 10:20:15;;;;;;;81.93;34.10;;;;;;;3.64;100.00;102633.06;4992306;28;20045;-53
2021/03/01 10:23:01;;;;;;;87.70;37.40;;;;;;;4.39;100.00;102633.78;4984021;28;20506;-52
2021/03/01 10:25:33;;;;;;;85.73;33.07;;;;;;;4.23;100.00;102641.66;4981706;28;20232;-51
2021/03/01 10:28:01;;;;;;;83.80;34.88;;;;;;;3.94;100.00;102632.50;4985584;28;20035;-51
2021/03/01 10:30:28;;;;;;;93.88;36.33;;;;;;;4.16;100.00;102640.25;4984180;28;20031;-52
2021/03/01 10:33:05;;;;;;;81.35;34.40;;;;;;;4.39;100.00;102631.13;4983982;28;20073;-53
2021/03/01 10:35:33;;;;;;;94.05;37.10;;;;;;;4.69;100.00;102634.94;4984694;28;20046;-54
2021/03/01 10:38:01;;;;;;;82.53;38.10;;;;;;;4.96;100.00;102633.50;4980491;28;20054;-52
2021/03/01 10:40:29;;;;;;;81.22;32.78;;;;;;;4.92;100.00;102633.72;4983219;28;20058;-53
2021/03/01 10:42:56;;;;;;;83.00;34.72;;;;;;;5.06;100.00;102628.56;4983282;28;20042;-54
2021/03/01 10:45:24;;;;;;;83.65;33.30;;;;;;;5.65;100.00;102628.81;4985472;28;20038;-53
2021/03/01 10:47:59;;;;;;;78.53;30.83;;;;;;;4.77;100.00;102625.66;4980859;28;20545;-53
2021/03/01 10:50:26;;;;;;;80.95;34.47;;;;;;;6.16;100.00;102625.94;4988311;28;20034;-53
2021/03/01 10:52:53;;;;;;;67.68;28.73;;;;;;;5.62;100.00;102629.00;4978442;28;20100;-53
2021/03/01 10:55:20;;;;;;;72.43;32.38;;;;;;;5.06;100.00;102620.59;4988654;28;20453;-50
2021/03/01 10:57:47;;;;;;;64.50;29.55;;;;;;;4.99;100.00;102620.06;4982676;28;20035;-53
2021/03/01 11:00:15;;;;;;;83.22;30.85;;;;;;;6.41;100.00;102613.88;4988388;28;20350;-54
2021/03/01 11:02:44;;;;;;;67.53;28.65;;;;;;;6.66;100.00;102613.28;4987877;28;20113;-52
2021/03/01 11:05:11;;;;;;;77.57;29.98;;;;;;;7.92;100.00;102606.19;4970313;28;21424;-53
2021/03/01 11:07:39;;;;;;;66.68;27.70;;;;;;;6.82;100.00;102609.66;4986083;28;20049;-53
2021/03/01 11:10:07;;;;;;;61.60;28.25;;;;;;;6.74;100.00;102607.47;4985587;28;20346;-53
2021/03/01 11:12:35;;;;;;;78.47;31.27;;;;;;;6.13;100.00;102607.56;4984061;28;20047;-52
2021/03/01 11:15:02;;;;;;;66.38;28.55;;;;;;;6.75;100.00;102603.00;4982440;28;20049;-53
2021/03/01 11:17:29;;;;;;;68.30;27.85;;;;;;;6.48;100.00;102606.44;4987854;28;20042;-55
2021/03/01 11:19:58;;;;;;;72.93;29.23;;;;;;;5.95;100.00;102606.78;4984602;28;20042;-55